createdAt,value
2016-08-14T00:00:46.824Z,17.56
2016-08-14T00:01:46.824Z,17.52
2016-08-14T00:02:46.828Z,17.52
2016-08-14T00:03:46.820Z,17.55
2016-08-14T00:04:46.819Z,17.48
2016-08-14T00:06:47.452Z,17.36
2016-08-14T00:07:48.530Z,17.4
2016-08-14T00:08:47.909Z,17.26
2016-08-14T00:09:47.500Z,17.22
2016-08-14T00:10:47.029Z,17.33
2016-08-14T00:11:46.799Z,17.33
2016-08-14T00:12:46.811Z,17.25
2016-08-14T00:13:46.799Z,17.25
2016-08-14T00:14:47.795Z,17.33
2016-08-14T00:15:49.535Z,17.34
2016-08-14T00:16:47.488Z,17.23
2016-08-14T00:17:47.062Z,17.43
2016-08-14T00:18:48.592Z,17.37
2016-08-14T00:19:46.819Z,17.4
2016-08-14T00:20:46.798Z,17.34
2016-08-14T00:21:46.787Z,17.31
2016-08-14T00:22:46.871Z,17.4
2016-08-14T00:23:46.781Z,17.48
2016-08-14T00:24:46.776Z,17.41
2016-08-14T00:25:46.778Z,17.41
2016-08-14T00:26:46.772Z,17.43
2016-08-14T00:27:46.773Z,17.4
2016-08-14T00:28:46.777Z,17.4
2016-08-14T00:29:46.771Z,17.4
2016-08-14T00:30:46.769Z,17.37
2016-08-14T00:31:46.762Z,17.4
2016-08-14T00:32:46.766Z,17.34
2016-08-14T00:33:46.769Z,17.37
2016-08-14T00:34:47.457Z,17.4
2016-08-14T00:35:46.758Z,17.46
2016-08-14T00:36:46.760Z,17.41
2016-08-14T00:37:46.747Z,17.38
2016-08-14T00:38:46.754Z,17.36
2016-08-14T00:39:46.754Z,17.4
2016-08-14T00:40:46.743Z,17.43
2016-08-14T00:41:46.746Z,17.41
2016-08-14T00:42:46.753Z,17.43
2016-08-14T00:43:46.742Z,17.44
2016-08-14T00:45:02.811Z,17.41
2016-08-14T00:45:47.546Z,17.38
2016-08-14T00:47:02.054Z,17.4
2016-08-14T00:48:01.657Z,17.38
2016-08-14T00:48:46.735Z,17.41
2016-08-14T00:49:47.487Z,17.43
2016-08-14T00:50:47.183Z,17.4
2016-08-14T00:51:46.733Z,17.46
2016-08-14T00:52:46.780Z,17.37
2016-08-14T00:54:47.425Z,17.43
2016-08-14T00:56:47.866Z,17.43
2016-08-14T00:57:46.824Z,17.49
2016-08-14T00:58:46.821Z,17.55
2016-08-14T00:59:46.716Z,17.51
2016-08-14T01:00:46.708Z,17.46
2016-08-14T01:01:46.718Z,17.46
2016-08-14T01:02:46.704Z,17.62
2016-08-14T01:03:46.701Z,17.52
2016-08-14T01:04:46.701Z,17.58
2016-08-14T01:05:46.701Z,17.56
2016-08-14T01:06:46.699Z,17.58
2016-08-14T01:07:46.703Z,17.55
2016-08-14T01:08:46.705Z,17.56
2016-08-14T01:09:46.694Z,17.59
2016-08-14T01:10:46.691Z,17.59
2016-08-14T01:11:46.698Z,17.66
2016-08-14T01:12:46.699Z,17.58
2016-08-14T01:13:46.791Z,17.68
2016-08-14T01:14:46.681Z,17.63
2016-08-14T01:15:46.677Z,17.62
2016-08-14T01:16:46.686Z,17.66
2016-08-14T01:17:46.681Z,17.66
2016-08-14T01:18:46.672Z,17.66
2016-08-14T01:19:46.688Z,17.7
2016-08-14T01:20:46.671Z,17.66
2016-08-14T01:21:46.670Z,17.66
2016-08-14T01:22:46.678Z,17.66
2016-08-14T01:24:48.191Z,17.66
2016-08-14T01:25:48.417Z,17.66
2016-08-14T01:26:48.438Z,17.68
2016-08-14T01:27:47.265Z,17.7
2016-08-14T01:28:46.659Z,17.66
2016-08-14T01:29:46.667Z,17.64
2016-08-14T01:30:46.661Z,17.64
2016-08-14T01:31:46.656Z,17.68
2016-08-14T01:32:47.600Z,17.66
2016-08-14T01:33:48.117Z,17.55
2016-08-14T01:34:46.647Z,17.62
2016-08-14T01:35:47.230Z,17.54
2016-08-14T01:36:46.644Z,17.56
2016-08-14T01:37:46.646Z,17.54
2016-08-14T01:38:47.336Z,17.46
2016-08-14T01:39:46.641Z,17.48
2016-08-14T01:40:46.645Z,17.4
2016-08-14T01:41:46.638Z,17.41
2016-08-14T01:42:46.634Z,17.38
2016-08-14T01:43:46.630Z,17.33
2016-08-14T01:44:46.634Z,17.43
2016-08-14T01:45:46.629Z,17.33
2016-08-14T01:46:46.633Z,17.36
2016-08-14T01:47:46.621Z,17.36
2016-08-14T01:48:46.625Z,17.3
2016-08-14T01:49:47.325Z,17.22
2016-08-14T01:50:46.617Z,17.22
2016-08-14T01:51:46.618Z,17.28
2016-08-14T01:52:46.614Z,17.21
2016-08-14T01:53:46.606Z,17.25
2016-08-14T01:54:46.606Z,17.14
2016-08-14T01:55:46.611Z,17.11
2016-08-14T01:56:46.608Z,17.21
2016-08-14T01:57:46.604Z,17.07
2016-08-14T01:58:46.609Z,17.11
2016-08-14T01:59:46.605Z,17.16
2016-08-14T02:00:46.600Z,17.14
2016-08-14T02:01:46.605Z,17.15
2016-08-14T02:03:47.291Z,17.18
2016-08-14T02:04:47.450Z,17.08
2016-08-14T02:05:46.591Z,17.11
2016-08-14T02:06:46.593Z,17.11
2016-08-14T02:07:46.788Z,17.12
2016-08-14T02:08:46.597Z,17.06
2016-08-14T02:09:46.935Z,17.06
2016-08-14T02:10:46.588Z,17
2016-08-14T02:12:01.496Z,17.01
2016-08-14T02:15:46.580Z,16.93
2016-08-14T02:16:47.069Z,16.88
2016-08-14T02:17:46.559Z,16.86
2016-08-14T02:18:47.257Z,16.86
2016-08-14T02:19:46.559Z,16.79
2016-08-14T02:20:46.561Z,16.93
2016-08-14T02:21:46.559Z,16.71
2016-08-14T02:22:46.556Z,16.71
2016-08-14T02:23:46.565Z,16.76
2016-08-14T02:24:46.553Z,16.67
2016-08-14T02:25:46.563Z,16.52
2016-08-14T02:26:46.545Z,16.58
2016-08-14T02:27:46.548Z,16.57
2016-08-14T02:28:46.544Z,16.52
2016-08-14T02:29:46.547Z,16.48
2016-08-14T02:30:46.533Z,16.49
2016-08-14T02:31:46.541Z,16.45
2016-08-14T02:32:47.230Z,16.49
2016-08-14T02:33:46.531Z,16.52
2016-08-14T02:34:46.528Z,16.48
2016-08-14T02:35:46.530Z,16.48
2016-08-14T02:36:46.523Z,16.45
2016-08-14T02:37:46.527Z,16.46
2016-08-14T02:38:46.526Z,16.5
2016-08-14T02:39:46.516Z,16.48
2016-08-14T02:40:46.523Z,16.5
2016-08-14T02:41:48.028Z,16.45
2016-08-14T02:43:48.183Z,16.52
2016-08-14T02:44:48.831Z,16.52
2016-08-14T02:45:46.503Z,16.56
2016-08-14T02:46:47.259Z,16.5
2016-08-14T02:47:46.498Z,16.58
2016-08-14T02:48:46.493Z,16.6
2016-08-14T02:49:46.497Z,16.64
2016-08-14T02:50:46.490Z,16.56
2016-08-14T02:51:46.926Z,16.49
2016-08-14T02:52:46.490Z,16.61
2016-08-14T02:53:47.482Z,16.63
2016-08-14T02:54:47.341Z,16.7
2016-08-14T02:55:46.804Z,16.67
2016-08-14T02:56:46.474Z,16.76
2016-08-14T02:57:46.474Z,16.75
2016-08-14T02:58:46.473Z,16.71
2016-08-14T02:59:46.489Z,16.71
2016-08-14T03:00:47.174Z,16.71
2016-08-14T03:01:46.467Z,16.75
2016-08-14T03:02:46.468Z,16.7
2016-08-14T03:03:46.460Z,16.79
2016-08-14T03:04:46.471Z,16.85
2016-08-14T03:05:46.459Z,16.75
2016-08-14T03:06:46.453Z,16.81
2016-08-14T03:07:46.450Z,16.79
2016-08-14T03:08:46.450Z,16.78
2016-08-14T03:09:46.450Z,16.88
2016-08-14T03:10:46.449Z,16.86
2016-08-14T03:11:46.443Z,16.83
2016-08-14T03:12:46.438Z,16.89
2016-08-14T03:13:46.534Z,16.91
2016-08-14T03:14:46.436Z,16.88
2016-08-14T03:15:46.433Z,16.88
2016-08-14T03:16:46.425Z,16.89
2016-08-14T03:17:46.438Z,16.91
2016-08-14T03:18:46.427Z,16.88
2016-08-14T03:19:46.427Z,16.91
2016-08-14T03:20:47.316Z,16.89
2016-08-14T03:21:46.968Z,16.89
2016-08-14T03:22:46.519Z,16.94
2016-08-14T03:23:46.665Z,16.93
2016-08-14T03:24:47.257Z,16.86
2016-08-14T03:25:46.456Z,16.89
2016-08-14T03:26:47.310Z,16.89
2016-08-14T03:27:46.408Z,16.86
2016-08-14T03:28:46.411Z,16.89
2016-08-14T03:29:46.395Z,16.86
2016-08-14T03:30:47.917Z,16.89
2016-08-14T03:31:47.451Z,16.93
2016-08-14T03:32:46.394Z,16.93
2016-08-14T03:33:46.647Z,16.93
2016-08-14T03:34:46.541Z,16.91
2016-08-14T03:35:46.384Z,16.94
2016-08-14T03:36:46.383Z,16.94
2016-08-14T03:37:46.376Z,16.93
2016-08-14T03:38:46.385Z,16.93
2016-08-14T03:39:46.374Z,16.93
2016-08-14T03:40:46.377Z,16.96
2016-08-14T03:41:46.380Z,16.93
2016-08-14T03:42:46.376Z,16.94
2016-08-14T03:43:46.376Z,16.93
2016-08-14T03:44:46.375Z,16.93
2016-08-14T03:45:46.372Z,16.93
2016-08-14T03:46:46.361Z,16.88
2016-08-14T03:47:46.363Z,16.91
2016-08-14T03:48:46.357Z,16.91
2016-08-14T03:49:46.358Z,16.86
2016-08-14T03:50:46.361Z,16.91
2016-08-14T03:51:46.357Z,16.89
2016-08-14T03:52:46.349Z,16.91
2016-08-14T03:53:46.351Z,16.91
2016-08-14T03:54:46.344Z,16.96
2016-08-14T03:55:46.342Z,16.93
2016-08-14T03:56:46.337Z,16.96
2016-08-14T03:57:46.337Z,16.97
2016-08-14T03:58:46.339Z,16.94
2016-08-14T03:59:46.339Z,16.96
2016-08-14T04:00:47.936Z,17
2016-08-14T04:01:47.404Z,17.03
2016-08-14T04:02:48.816Z,17.01
2016-08-14T04:03:46.678Z,17.04
2016-08-14T04:04:46.434Z,17.12
2016-08-14T04:05:46.322Z,17.08
2016-08-14T04:06:46.326Z,17.07
2016-08-14T04:07:46.322Z,17.06
2016-08-14T04:08:46.311Z,17.12
2016-08-14T04:09:47.794Z,17.14
2016-08-14T04:10:47.719Z,17.21
2016-08-14T04:11:47.479Z,17.21
2016-08-14T04:12:46.317Z,17.14
2016-08-14T04:13:46.396Z,17.14
2016-08-14T04:14:46.294Z,17.14
2016-08-14T04:15:46.305Z,17.08
2016-08-14T04:16:46.413Z,17.11
2016-08-14T04:17:46.287Z,17.21
2016-08-14T04:18:46.309Z,17.22
2016-08-14T04:19:46.291Z,17.23
2016-08-14T04:20:46.303Z,17.22
2016-08-14T04:21:46.297Z,17.34
2016-08-14T04:22:46.285Z,17.28
2016-08-14T04:23:46.287Z,17.36
2016-08-14T04:24:46.976Z,17.34
2016-08-14T04:25:46.280Z,17.34
2016-08-14T04:26:46.274Z,17.3
2016-08-14T04:27:46.271Z,17.22
2016-08-14T04:28:46.262Z,17.31
2016-08-14T04:29:46.265Z,17.37
2016-08-14T04:30:46.263Z,17.44
2016-08-14T04:31:46.265Z,17.31
2016-08-14T04:32:46.258Z,17.41
2016-08-14T04:33:46.261Z,17.41
2016-08-14T04:34:46.264Z,17.55
2016-08-14T04:35:46.252Z,17.43
2016-08-14T04:36:46.256Z,17.54
2016-08-14T04:37:46.255Z,17.52
2016-08-14T04:38:46.243Z,17.55
2016-08-14T04:40:01.522Z,17.56
2016-08-14T04:41:16.680Z,17.59
2016-08-14T04:41:46.592Z,17.66
2016-08-14T04:43:01.159Z,17.63
2016-08-14T04:43:46.242Z,17.64
2016-08-14T04:44:46.889Z,17.7
2016-08-14T04:45:46.235Z,17.74
2016-08-14T04:46:46.230Z,17.81
2016-08-14T04:47:46.233Z,17.74
2016-08-14T04:49:46.324Z,17.77
2016-08-14T04:50:46.333Z,17.78
2016-08-14T04:51:47.537Z,17.87
2016-08-14T04:52:46.225Z,17.92
2016-08-14T04:53:46.225Z,18.03
2016-08-14T04:54:46.233Z,18.08
2016-08-14T04:55:46.229Z,18.12
2016-08-14T04:56:46.223Z,18.12
2016-08-14T04:57:46.215Z,18.12
2016-08-14T04:58:46.212Z,18.26
2016-08-14T04:59:46.221Z,18.14
2016-08-14T05:00:46.218Z,18.21
2016-08-14T05:01:46.225Z,18.18
2016-08-14T05:02:46.206Z,18.35
2016-08-14T05:03:46.205Z,18.32
2016-08-14T05:04:46.200Z,18.32
2016-08-14T05:05:46.208Z,18.36
2016-08-14T05:06:46.906Z,18.45
2016-08-14T05:07:46.201Z,18.42
2016-08-14T05:08:46.200Z,18.58
2016-08-14T05:09:46.201Z,18.48
2016-08-14T05:10:46.202Z,18.54
2016-08-14T05:11:46.189Z,18.52
2016-08-14T05:12:46.195Z,18.58
2016-08-14T05:13:46.342Z,18.67
2016-08-14T05:14:46.185Z,18.75
2016-08-14T05:15:46.192Z,18.73
2016-08-14T05:16:46.192Z,18.85
2016-08-14T05:17:46.197Z,18.95
2016-08-14T05:18:46.679Z,18.99
2016-08-14T05:19:46.939Z,18.92
2016-08-14T05:20:46.184Z,19.04
2016-08-14T05:21:47.431Z,19.18
2016-08-14T05:22:47.669Z,19.28
2016-08-14T05:23:46.191Z,19.32
2016-08-14T05:24:46.181Z,19.41
2016-08-14T05:25:46.428Z,19.43
2016-08-14T05:26:46.220Z,19.51
2016-08-14T05:28:46.959Z,19.71
2016-08-14T05:29:47.568Z,19.74
2016-08-14T05:30:46.403Z,19.76
2016-08-14T05:31:47.013Z,19.77
2016-08-14T05:32:47.337Z,19.83
2016-08-14T05:33:46.175Z,19.83
2016-08-14T05:34:46.179Z,19.92
2016-08-14T05:35:46.181Z,19.98
2016-08-14T05:36:46.173Z,20.05
2016-08-14T05:37:46.177Z,20.1
2016-08-14T05:38:46.180Z,20.14
2016-08-14T05:39:46.187Z,20.14
2016-08-14T05:40:46.180Z,20.17
2016-08-14T05:41:46.179Z,20.24
2016-08-14T05:42:46.177Z,20.21
2016-08-14T05:43:46.180Z,20.18
2016-08-14T05:44:46.177Z,20.23
2016-08-14T05:45:46.178Z,20.28
2016-08-14T05:46:46.171Z,20.35
2016-08-14T05:47:46.175Z,20.5
2016-08-14T05:48:46.175Z,20.66
2016-08-14T05:49:46.193Z,20.72
2016-08-14T05:50:46.176Z,20.82
2016-08-14T05:51:46.179Z,20.85
2016-08-14T05:52:46.174Z,20.87
2016-08-14T05:53:46.187Z,20.8
2016-08-14T05:54:46.183Z,20.85
2016-08-14T05:55:46.181Z,20.91
2016-08-14T05:56:46.184Z,20.97
2016-08-14T05:57:46.982Z,21.09
2016-08-14T05:58:46.284Z,21.28
2016-08-14T05:59:47.243Z,21.49
2016-08-14T06:00:46.190Z,21.8
2016-08-14T06:01:46.497Z,22.09
2016-08-14T06:02:46.594Z,22.25
2016-08-14T06:03:46.194Z,22.58
2016-08-14T06:04:46.201Z,22.67
2016-08-14T06:05:46.206Z,22.83
2016-08-14T06:06:46.304Z,22.82
2016-08-14T06:07:46.957Z,22.97
2016-08-14T06:08:46.205Z,23.09
2016-08-14T06:09:46.230Z,23.2
2016-08-14T06:10:46.361Z,23.22
2016-08-14T06:11:46.621Z,23.42
2016-08-14T06:12:46.233Z,23.63
2016-08-14T06:13:46.231Z,23.97
2016-08-14T06:14:46.242Z,24.16
2016-08-14T06:15:46.242Z,24.4
2016-08-14T06:16:46.242Z,24.67
2016-08-14T06:17:46.244Z,24.83
2016-08-14T06:18:46.252Z,25.17
2016-08-14T06:19:46.264Z,25.35
2016-08-14T06:20:46.257Z,25.62
2016-08-14T06:21:46.273Z,25.88
2016-08-14T06:22:46.277Z,26.02
2016-08-14T06:23:46.280Z,26.3
2016-08-14T06:24:46.285Z,26.3
2016-08-14T06:25:46.302Z,26.23
2016-08-14T06:26:47.004Z,25.98
2016-08-14T06:27:46.308Z,25.94
2016-08-14T06:28:46.317Z,25.92
2016-08-14T06:29:46.333Z,25.91
2016-08-14T06:30:46.327Z,25.88
2016-08-14T06:31:46.331Z,25.77
2016-08-14T06:32:46.350Z,25.67
2016-08-14T06:33:46.350Z,25.64
2016-08-14T06:34:46.352Z,25.43
2016-08-14T06:35:46.362Z,25.32
2016-08-14T06:36:46.757Z,25.32
2016-08-14T06:37:47.945Z,25.21
2016-08-14T06:38:48.615Z,25.27
2016-08-14T06:39:47.632Z,25.3
2016-08-14T06:40:47.090Z,25.4
2016-08-14T06:41:46.404Z,25.58
2016-08-14T06:42:46.410Z,25.87
2016-08-14T06:43:46.470Z,26.06
2016-08-14T06:44:46.428Z,26.33
2016-08-14T06:47:47.000Z,26.36
2016-08-14T06:48:46.519Z,26.17
2016-08-14T06:49:47.832Z,26.18
2016-08-14T06:50:46.479Z,26.28
2016-08-14T06:51:46.476Z,26.43
2016-08-14T06:52:46.484Z,26.66
2016-08-14T06:53:46.495Z,26.82
2016-08-14T06:54:46.507Z,27.04
2016-08-14T06:55:46.518Z,27.32
2016-08-14T06:56:46.521Z,27.49
2016-08-14T06:57:46.525Z,27.66
2016-08-14T06:58:46.537Z,27.65
2016-08-14T06:59:46.547Z,27.5
2016-08-14T07:00:46.558Z,27.62
2016-08-14T07:01:46.565Z,27.7
2016-08-14T07:02:46.577Z,27.79
2016-08-14T07:03:46.582Z,27.77
2016-08-14T07:04:46.599Z,27.67
2016-08-14T07:05:47.302Z,27.84
2016-08-14T07:06:46.620Z,27.85
2016-08-14T07:07:46.623Z,28.03
2016-08-14T07:08:46.627Z,28.37
2016-08-14T07:09:46.642Z,28.73
2016-08-14T07:10:46.659Z,29.12
2016-08-14T07:11:46.666Z,29.65
2016-08-14T07:12:46.685Z,30.07
2016-08-14T07:13:47.435Z,30.46
2016-08-14T07:14:46.696Z,30.65
2016-08-14T07:15:47.955Z,30.65
2016-08-14T07:16:47.566Z,30.47
2016-08-14T07:17:46.930Z,30.11
2016-08-14T07:18:46.751Z,29.67
2016-08-14T07:19:46.753Z,29.37
2016-08-14T07:20:46.761Z,29.06
2016-08-14T07:21:46.775Z,29.05
2016-08-14T07:22:46.777Z,29.08
2016-08-14T07:23:46.788Z,28.85
2016-08-14T07:25:47.972Z,28.76
2016-08-14T07:26:46.831Z,28.67
2016-08-14T07:27:46.836Z,28.52
2016-08-14T07:28:46.844Z,28.61
2016-08-14T07:29:46.858Z,28.64
2016-08-14T07:30:46.869Z,28.93
2016-08-14T07:31:46.880Z,29.21
2016-08-14T07:32:46.887Z,29.31
2016-08-14T07:33:46.905Z,29.34
2016-08-14T07:34:46.920Z,29.21
2016-08-14T07:35:46.928Z,29.23
2016-08-14T07:36:46.944Z,29.12
2016-08-14T07:37:46.952Z,28.92
2016-08-14T07:38:46.958Z,28.73
2016-08-14T07:39:46.975Z,28.68
2016-08-14T07:40:46.984Z,28.98
2016-08-14T07:41:47.003Z,29.36
2016-08-14T07:42:47.006Z,29.79
2016-08-14T07:43:47.022Z,29.95
2016-08-14T07:44:47.035Z,30.16
2016-08-14T07:45:47.053Z,30.26
2016-08-14T07:46:47.082Z,30.38
2016-08-14T07:47:47.080Z,30.37
2016-08-14T07:48:47.085Z,30.49
2016-08-14T07:49:47.100Z,30.49
2016-08-14T07:50:47.113Z,30.61
2016-08-14T07:51:47.132Z,30.7
2016-08-14T07:52:47.144Z,30.98
2016-08-14T07:53:47.179Z,31.21
2016-08-14T07:54:49.245Z,31.48
2016-08-14T07:56:48.514Z,32.01
2016-08-14T07:57:48.284Z,31.96
2016-08-14T07:58:47.232Z,32.07
2016-08-14T07:59:47.957Z,32.14
2016-08-14T08:00:47.867Z,32.19
2016-08-14T08:01:47.968Z,32.08
2016-08-14T08:02:47.288Z,32.08
2016-08-14T08:03:48.822Z,32.06
2016-08-14T08:05:47.335Z,31.69
2016-08-14T08:06:47.429Z,31.7
2016-08-14T08:07:49.288Z,31.95
2016-08-14T08:08:47.801Z,32.19
2016-08-14T08:09:48.038Z,32.33
2016-08-14T08:10:47.532Z,32.43
2016-08-14T08:11:47.421Z,32.51
2016-08-14T08:12:47.437Z,32.52
2016-08-14T08:13:47.452Z,32.35
2016-08-14T08:14:47.466Z,32.25
2016-08-14T08:15:47.485Z,32.23
2016-08-14T08:16:47.492Z,32.01
2016-08-14T08:17:47.518Z,31.32
2016-08-14T08:18:47.519Z,30.72
2016-08-14T08:19:47.542Z,30.31
2016-08-14T08:20:47.545Z,30.1
2016-08-14T08:21:47.561Z,29.76
2016-08-14T08:22:47.574Z,29.68
2016-08-14T08:23:47.587Z,29.45
2016-08-14T08:24:47.616Z,29.08
2016-08-14T08:25:47.614Z,28.96
2016-08-14T08:26:47.628Z,28.81
2016-08-14T08:27:47.634Z,28.55
2016-08-14T08:28:47.643Z,28.4
2016-08-14T08:29:47.671Z,28.12
2016-08-14T08:30:47.667Z,28.07
2016-08-14T08:31:47.677Z,27.99
2016-08-14T08:32:47.685Z,28.03
2016-08-14T08:33:49.009Z,28.07
2016-08-14T08:34:47.954Z,28.24
2016-08-14T08:35:48.218Z,28.37
2016-08-14T08:36:48.228Z,28.41
2016-08-14T08:37:48.041Z,28.36
2016-08-14T08:38:47.743Z,28.03
2016-08-14T08:39:47.757Z,27.74
2016-08-14T08:40:47.771Z,27.65
2016-08-14T08:41:47.776Z,27.46
2016-08-14T08:42:48.944Z,27.31
2016-08-14T08:43:48.699Z,27.14
2016-08-14T08:44:47.797Z,26.76
2016-08-14T08:45:48.011Z,26.39
2016-08-14T08:46:48.279Z,26.13
2016-08-14T08:47:47.835Z,26.1
2016-08-14T08:48:47.839Z,25.87
2016-08-14T08:49:47.845Z,25.62
2016-08-14T08:50:47.853Z,25.52
2016-08-14T08:51:47.868Z,25.43
2016-08-14T08:52:47.876Z,25.28
2016-08-14T08:53:47.873Z,25.03
2016-08-14T08:54:47.885Z,24.77
2016-08-14T08:55:47.892Z,24.73
2016-08-14T08:56:47.907Z,24.73
2016-08-14T08:57:47.904Z,24.62
2016-08-14T08:58:47.911Z,24.47
2016-08-14T08:59:47.920Z,24.4
2016-08-14T09:00:47.943Z,24.18
2016-08-14T09:01:47.937Z,24.21
2016-08-14T09:02:47.944Z,24.21
2016-08-14T09:03:47.949Z,24.28
2016-08-14T09:04:47.951Z,24.43
2016-08-14T09:05:47.959Z,24.43
2016-08-14T09:06:47.962Z,24.37
2016-08-14T09:07:47.965Z,24.47
2016-08-14T09:08:47.983Z,24.52
2016-08-14T09:09:47.979Z,24.53
2016-08-14T09:10:47.989Z,24.76
2016-08-14T09:11:47.995Z,24.85
2016-08-14T09:12:49.519Z,24.93
2016-08-14T09:14:48.836Z,25.15
2016-08-14T09:15:49.261Z,25.06
2016-08-14T09:16:48.354Z,24.88
2016-08-14T09:17:48.038Z,24.81
2016-08-14T09:18:48.034Z,24.73
2016-08-14T09:19:48.045Z,24.57
2016-08-14T09:20:48.047Z,24.5
2016-08-14T09:22:48.691Z,24.46
2016-08-14T09:23:49.706Z,24.25
2016-08-14T09:24:48.583Z,24.1
2016-08-14T09:25:48.086Z,24.15
2016-08-14T09:26:48.085Z,24.05
2016-08-14T09:27:48.308Z,24.09
2016-08-14T09:28:48.573Z,24.08
2016-08-14T09:29:48.109Z,24.3
2016-08-14T09:30:48.106Z,24.37
2016-08-14T09:31:48.110Z,24.35
2016-08-14T09:32:48.126Z,24.34
2016-08-14T09:33:48.130Z,24.35
2016-08-14T09:34:48.125Z,24.34
2016-08-14T09:35:48.136Z,24.45
2016-08-14T09:36:48.137Z,24.65
2016-08-14T09:37:48.147Z,24.9
2016-08-14T09:38:48.151Z,25.09
2016-08-14T09:39:48.153Z,25.33
2016-08-14T09:40:48.161Z,25.52
2016-08-14T09:41:48.170Z,25.76
2016-08-14T09:42:48.178Z,25.83
2016-08-14T09:43:48.189Z,25.95
2016-08-14T09:44:48.207Z,26.07
2016-08-14T09:45:48.205Z,26.29
2016-08-14T09:46:48.200Z,26.35
2016-08-14T09:47:48.199Z,26.39
2016-08-14T09:48:48.219Z,26.35
2016-08-14T09:49:48.210Z,26.3
2016-08-14T09:50:48.223Z,26.35
2016-08-14T09:52:48.538Z,26.44
2016-08-14T09:53:48.691Z,26.54
2016-08-14T09:55:03.314Z,26.69
2016-08-14T09:56:48.872Z,26.69
2016-08-14T09:57:48.261Z,26.66
2016-08-14T09:58:48.267Z,26.69
2016-08-14T09:59:48.279Z,26.52
2016-08-14T10:01:48.888Z,26.13
2016-08-14T10:02:48.309Z,25.98
2016-08-14T10:04:03.523Z,25.75
2016-08-14T10:05:03.231Z,25.9
2016-08-14T10:05:49.662Z,26.02
2016-08-14T10:06:48.321Z,25.94
2016-08-14T10:07:48.580Z,26.01
2016-08-14T10:08:48.332Z,26.06
2016-08-14T10:09:48.343Z,26.32
2016-08-14T10:10:48.351Z,26.48
2016-08-14T10:11:48.431Z,26.6
2016-08-14T10:12:48.353Z,26.69
2016-08-14T10:13:48.367Z,26.8
2016-08-14T10:14:48.386Z,26.7
2016-08-14T10:15:48.377Z,26.67
2016-08-14T10:16:48.384Z,26.7
2016-08-14T10:17:48.388Z,26.81
2016-08-14T10:18:48.405Z,26.91
2016-08-14T10:19:48.416Z,27
2016-08-14T10:20:48.411Z,27.1
2016-08-14T10:21:48.413Z,27.13
2016-08-14T10:22:48.421Z,27.02
2016-08-14T10:23:48.450Z,27
2016-08-14T10:24:48.443Z,27.04
2016-08-14T10:25:48.442Z,27.22
2016-08-14T10:26:48.451Z,27.36
2016-08-14T10:27:48.455Z,27.4
2016-08-14T10:28:48.470Z,27.28
2016-08-14T10:29:48.474Z,27.36
2016-08-14T10:30:48.473Z,27.44
2016-08-14T10:31:50.042Z,27.57
2016-08-14T10:32:49.315Z,27.51
2016-08-14T10:33:50.378Z,27.55
2016-08-14T10:34:48.505Z,27.6
2016-08-14T10:35:48.517Z,27.63
2016-08-14T10:36:48.525Z,27.54
2016-08-14T10:37:49.469Z,27.54
2016-08-14T10:38:48.536Z,27.37
2016-08-14T10:39:48.552Z,27.46
2016-08-14T10:40:50.073Z,27.46
2016-08-14T10:41:50.050Z,27.31
2016-08-14T10:42:49.555Z,27.28
2016-08-14T10:43:49.606Z,27.51
2016-08-14T10:44:49.448Z,27.6
2016-08-14T10:45:48.816Z,27.63
2016-08-14T10:46:48.598Z,27.65
2016-08-14T10:47:48.602Z,27.72
2016-08-14T10:48:48.612Z,27.85
2016-08-14T10:49:48.622Z,27.96
2016-08-14T10:50:48.625Z,28.02
2016-08-14T10:51:48.629Z,28.18
2016-08-14T10:52:48.641Z,28.34
2016-08-14T10:53:48.641Z,28.37
2016-08-14T10:54:48.650Z,28.21
2016-08-14T10:55:48.659Z,28.03
2016-08-14T10:56:48.665Z,28.15
2016-08-14T10:57:48.679Z,28.14
2016-08-14T10:58:48.687Z,28.21
2016-08-14T10:59:48.689Z,28.39
2016-08-14T11:00:48.699Z,28.43
2016-08-14T11:01:48.713Z,28.49
2016-08-14T11:02:48.716Z,28.56
2016-08-14T11:03:48.725Z,28.46
2016-08-14T11:04:48.738Z,28.31
2016-08-14T11:05:48.742Z,28.21
2016-08-14T11:06:48.750Z,28.3
2016-08-14T11:07:48.762Z,28.31
2016-08-14T11:08:48.769Z,28.21
2016-08-14T11:09:48.769Z,28.22
2016-08-14T11:11:03.702Z,28.25
2016-08-14T11:12:04.102Z,28.27
2016-08-14T11:12:49.518Z,28.33
2016-08-14T11:13:49.006Z,28.24
2016-08-14T11:14:48.808Z,28.09
2016-08-14T11:15:48.822Z,28.14
2016-08-14T11:16:48.819Z,28.09
2016-08-14T11:17:48.826Z,28.18
2016-08-14T11:18:48.844Z,28.09
2016-08-14T11:19:49.154Z,28.12
2016-08-14T11:20:48.961Z,28.15
2016-08-14T11:21:48.862Z,28.15
2016-08-14T11:22:49.177Z,28.12
2016-08-14T11:23:49.245Z,28.17
2016-08-14T11:24:48.886Z,28.21
2016-08-14T11:25:48.898Z,28.29
2016-08-14T11:26:48.903Z,28.24
2016-08-14T11:27:48.912Z,28.21
2016-08-14T11:28:48.915Z,28.19
2016-08-14T11:29:48.921Z,28.11
2016-08-14T11:30:48.936Z,28.11
2016-08-14T11:31:48.937Z,28.07
2016-08-14T11:32:48.950Z,28.07
2016-08-14T11:33:48.955Z,28.27
2016-08-14T11:34:48.961Z,28.39
2016-08-14T11:35:48.966Z,28.52
2016-08-14T11:36:48.976Z,28.59
2016-08-14T11:37:48.990Z,28.62
2016-08-14T11:38:49.691Z,28.58
2016-08-14T11:39:48.997Z,28.58
2016-08-14T11:40:49.004Z,28.25
2016-08-14T11:41:49.021Z,28.12
2016-08-14T11:42:49.022Z,28.04
2016-08-14T11:43:49.034Z,28.17
2016-08-14T11:44:49.036Z,28.12
2016-08-14T11:45:49.046Z,28.04
2016-08-14T11:46:49.055Z,28.09
2016-08-14T11:47:49.063Z,28.03
2016-08-14T11:48:49.068Z,27.99
2016-08-14T11:49:51.187Z,27.96
2016-08-14T11:50:51.182Z,28.02
2016-08-14T11:51:50.838Z,28.09
2016-08-14T11:52:49.095Z,28.07
2016-08-14T11:53:49.109Z,28.11
2016-08-14T11:54:49.109Z,27.87
2016-08-14T11:55:49.808Z,27.6
2016-08-14T11:56:49.367Z,27.22
2016-08-14T11:57:49.140Z,27.04
2016-08-14T11:58:50.657Z,27.02
2016-08-14T11:59:49.747Z,27
2016-08-14T12:00:49.969Z,27
2016-08-14T12:01:49.182Z,27.12
2016-08-14T12:02:49.166Z,27.25
2016-08-14T12:03:49.189Z,27.43
2016-08-14T12:04:49.808Z,27.21
2016-08-14T12:05:49.191Z,26.99
2016-08-14T12:06:49.203Z,26.87
2016-08-14T12:07:49.209Z,26.82
2016-08-14T12:08:49.212Z,26.67
2016-08-14T12:09:49.221Z,26.63
2016-08-14T12:10:49.229Z,26.72
2016-08-14T12:11:49.235Z,26.8
2016-08-14T12:12:49.246Z,26.92
2016-08-14T12:13:49.252Z,26.95
2016-08-14T12:14:49.993Z,27.02
2016-08-14T12:15:49.257Z,27.18
2016-08-14T12:16:49.271Z,27.18
2016-08-14T12:17:49.538Z,27.04
2016-08-14T12:18:49.278Z,27.14
2016-08-14T12:19:49.289Z,27.04
2016-08-14T12:20:49.295Z,26.94
2016-08-14T12:21:49.299Z,26.76
2016-08-14T12:22:49.313Z,26.67
2016-08-14T12:23:49.308Z,26.58
2016-08-14T12:24:49.318Z,26.5
2016-08-14T12:25:49.338Z,26.37
2016-08-14T12:26:49.330Z,26.32
2016-08-14T12:27:49.337Z,26.07
2016-08-14T12:28:50.343Z,25.91
2016-08-14T12:29:49.959Z,26.01
2016-08-14T12:30:50.156Z,25.95
2016-08-14T12:31:49.361Z,25.91
2016-08-14T12:32:49.372Z,26.12
2016-08-14T12:33:49.374Z,26.28
2016-08-14T12:34:49.684Z,26.35
2016-08-14T12:35:49.384Z,26.37
2016-08-14T12:36:49.397Z,26.39
2016-08-14T12:38:05.015Z,26.5
2016-08-14T12:38:49.407Z,26.54
2016-08-14T12:39:49.907Z,26.69
2016-08-14T12:40:49.429Z,26.7
2016-08-14T12:41:49.574Z,26.76
2016-08-14T12:42:49.434Z,26.62
2016-08-14T12:43:49.438Z,26.58
2016-08-14T12:44:49.441Z,26.57
2016-08-14T12:45:49.446Z,26.7
2016-08-14T12:46:49.454Z,26.69
2016-08-14T12:47:49.470Z,26.82
2016-08-14T12:48:49.474Z,26.87
2016-08-14T12:49:49.474Z,26.85
2016-08-14T12:50:49.485Z,26.67
2016-08-14T12:51:49.494Z,26.65
2016-08-14T12:52:49.493Z,26.58
2016-08-14T12:53:49.505Z,26.63
2016-08-14T12:54:49.509Z,26.63
2016-08-14T12:55:49.507Z,26.69
2016-08-14T12:56:49.517Z,26.6
2016-08-14T12:57:49.523Z,26.73
2016-08-14T12:58:49.530Z,26.66
2016-08-14T12:59:49.536Z,26.72
2016-08-14T13:00:49.547Z,26.73
2016-08-14T13:01:49.546Z,26.77
2016-08-14T13:02:49.553Z,26.89
2016-08-14T13:03:49.570Z,26.97
2016-08-14T13:04:49.572Z,27.13
2016-08-14T13:05:49.583Z,27.31
2016-08-14T13:06:49.598Z,27.29
2016-08-14T13:07:50.296Z,27.31
2016-08-14T13:08:51.182Z,27.21
2016-08-14T13:09:51.629Z,27.18
2016-08-14T13:10:50.417Z,27.29
2016-08-14T13:11:51.046Z,27.32
2016-08-14T13:12:49.624Z,27.28
2016-08-14T13:13:49.780Z,27.13
2016-08-14T13:14:50.549Z,27.1
2016-08-14T13:15:49.643Z,27.19
2016-08-14T13:17:51.230Z,27.29